Tyrone, GA

8:26 PM EST on January 23, 2017 (GMT -0500)
Lee's Lake | | Change Station
Active Advisory: Flood Warning

Elev 988 ft 33.51 °N, 84.54 °W | Updated 12 seconds ago

Clear
Clear
51.6 °F
Feels Like 51.6 °F
N
0.9
Wind Variable Wind from WNW
Gusts 2.5 mph

Today
High -- | Low -- °F
--% Chance of Precip.
Yesterday
High -- | Low -- °F
Precip. -- in
Pressure 29.66 in
Visibility 10.0 miles
Clouds Clear
Dew Point 43 °F
Humidity 73%
Rainfall 0.27 in
Snow Depth Not available.
7:39 AM 6:01 PM
Waning Crescent, 15% visible
METAR KFFC 240053Z AUTO 30009KT 10SM CLR 12/07 A2966 RMK AO2 SLP044 T01220067
Pressure 29.66 in
Visibility 10.0 miles
Clouds Clear
Dew Point 43 °F
Humidity 73%
Rainfall 0.27 in
Snow Depth Not available.
7:39 AM 6:01 PM
Waning Crescent, 15% visible
METAR KFFC 240053Z AUTO 30009KT 10SM CLR 12/07 A2966 RMK AO2 SLP044 T01220067

Get Your Daily Forecast Email!

Thanks for signing up!

Be on the lookout for a verification email in your inbox.

You'll start receiving the daily forecast at 8 AM.

×

10-Day Weather Forecast

Almanac

Astronomy

Jan. 23, 2017 Rise Set
Actual Time
Civil Twilight
Nautical Twilight
Astronomical Twilight
Moon
Length of Visible Light
Length of Day
Tomorrow will be .
, % of the Moon is Illuminated

Today's Extremes

State Highs State Lows

Community

WunderPhotos

Upload Photos

1,962,540 photos uploaded!

WunderBlog® & News

Nearby

Air Quality

  Air Quality AQ Index Pollutant
Not available.

Snow Depth

Station Depth Elevation

Earthquake Activity

City Distance Mag. Time & Date
Minimum magnitude displayed is 2.5.

Coastal Water Temperatures

Place Temperature

Stations

Nearby Weather Stations

Station Location Temp. Windchill Dew Point Humidity Wind Precip. Elev Updated Type
                   

Watches & Warnings

Flood Warning
Issued: 2:06 PM EST Jan. 23, 2017 – National Weather Service

... Flood Warning extended until Tuesday morning... the Flood Warning
continues for
the Flint River near Griffin Hwy. 16.
* Until Tuesday morning.
* At 2 PM Monday the stage was 12.1 feet... and rising.
* Minor flooding will continue.
* Flood stage is 12 feet.
* The river will continue rising to near 12.3 feet by this evening.
The river will fall below flood stage early Tuesday.
* At 12 feet... flood stage is reached. Minor flooding begins in The
Woodlands... fields and pasture upstream and downstream from the
gage on Georgia Highway 16 or Newnan Road.



Lat... Lon 3330 8444 3330 8437 3318 8445 3316 8447
      3316 8447 3322 8450